Terminal Aerodrome Forecast
Issued by NWS Mt. Holly, NJ

Home | Current Version | Previous Version | Text Only | Print | Product List | Glossary On
Versions: 1 2 3 4 5 6 7 8 9 10 11 12 13
000
FTUS41 KPHI 050550
TAFRDG
TAF
KRDG 050550Z 0506/0606 16007KT P6SM OVC050
     FM050700 15006KT 5SM -SN SCT015 OVC025
      TEMPO 0507/0510 3SM -RASN BR BKN015
     FM051000 16005KT 5SM BR BKN008 OVC015
     FM051500 28008KT P6SM SCT030 BKN050
     FM052000 29006KT P6SM FEW050=

USA.gov is the U.S. government's official web portal to all federal, state and local government web resources and services.